sensor_id;sensor_type;location;lat;lon;timestamp;pressure;altitude;pressure_sealevel;temperature
13304;BMP280;6720;51.958;4.540;2023-07-20T00:01:12;101382.97;;;19.60
13304;BMP280;6720;51.958;4.540;2023-07-20T00:03:38;101377.66;;;19.60
13304;BMP280;6720;51.958;4.540;2023-07-20T00:06:03;101378.97;;;19.70
13304;BMP280;6720;51.958;4.540;2023-07-20T00:08:29;101374.56;;;19.69
13304;BMP280;6720;51.958;4.540;2023-07-20T00:11:21;101375.94;;;19.59
13304;BMP280;6720;51.958;4.540;2023-07-20T00:13:47;101379.38;;;19.61
13304;BMP280;6720;51.958;4.540;2023-07-20T00:16:13;101383.25;;;19.54
13304;BMP280;6720;51.958;4.540;2023-07-20T00:18:38;101383.81;;;19.42
13304;BMP280;6720;51.958;4.540;2023-07-20T00:21:04;101380.94;;;19.47
13304;BMP280;6720;51.958;4.540;2023-07-20T00:23:29;101377.94;;;19.54
13304;BMP280;6720;51.958;4.540;2023-07-20T00:25:55;101384.19;;;19.53
13304;BMP280;6720;51.958;4.540;2023-07-20T00:28:20;101384.84;;;19.58
13304;BMP280;6720;51.958;4.540;2023-07-20T00:30:46;101387.34;;;19.61
13304;BMP280;6720;51.958;4.540;2023-07-20T00:33:12;101382.28;;;19.57
13304;BMP280;6720;51.958;4.540;2023-07-20T00:35:40;101384.25;;;19.52
13304;BMP280;6720;51.958;4.540;2023-07-20T00:38:06;101388.44;;;19.57
13304;BMP280;6720;51.958;4.540;2023-07-20T00:40:38;101390.31;;;19.55
13304;BMP280;6720;51.958;4.540;2023-07-20T00:43:04;101392.16;;;19.53
13304;BMP280;6720;51.958;4.540;2023-07-20T00:45:30;101385.25;;;19.49
13304;BMP280;6720;51.958;4.540;2023-07-20T00:47:56;101384.47;;;19.47
13304;BMP280;6720;51.958;4.540;2023-07-20T00:50:23;101383.66;;;19.45
13304;BMP280;6720;51.958;4.540;2023-07-20T00:52:49;101382.09;;;19.41
13304;BMP280;6720;51.958;4.540;2023-07-20T00:55:15;101387.53;;;19.38
13304;BMP280;6720;51.958;4.540;2023-07-20T00:57:40;101384.22;;;19.33
13304;BMP280;6720;51.958;4.540;2023-07-20T01:00:07;101385.81;;;19.37
13304;BMP280;6720;51.958;4.540;2023-07-20T01:02:32;101392.50;;;19.26
13304;BMP280;6720;51.958;4.540;2023-07-20T01:04:58;101390.94;;;19.20
13304;BMP280;6720;51.958;4.540;2023-07-20T01:07:31;101391.00;;;19.19
13304;BMP280;6720;51.958;4.540;2023-07-20T01:12:42;101393.88;;;19.14
13304;BMP280;6720;51.958;4.540;2023-07-20T01:15:09;101393.94;;;19.13
13304;BMP280;6720;51.958;4.540;2023-07-20T01:17:38;101397.44;;;19.13
13304;BMP280;6720;51.958;4.540;2023-07-20T01:20:05;101392.28;;;19.10
13304;BMP280;6720;51.958;4.540;2023-07-20T01:22:56;101392.88;;;18.97
13304;BMP280;6720;51.958;4.540;2023-07-20T01:31:24;101396.78;;;18.88
13304;BMP280;6720;51.958;4.540;2023-07-20T01:33:57;101394.13;;;18.88
13304;BMP280;6720;51.958;4.540;2023-07-20T01:36:29;101400.50;;;18.84
13304;BMP280;6720;51.958;4.540;2023-07-20T01:38:56;101403.22;;;18.83
13304;BMP280;6720;51.958;4.540;2023-07-20T01:41:22;101400.75;;;18.78
13304;BMP280;6720;51.958;4.540;2023-07-20T01:43:47;101403.66;;;18.72
13304;BMP280;6720;51.958;4.540;2023-07-20T01:46:13;101401.91;;;18.71
13304;BMP280;6720;51.958;4.540;2023-07-20T01:48:38;101402.72;;;18.73
13304;BMP280;6720;51.958;4.540;2023-07-20T01:51:03;101402.72;;;18.73
13304;BMP280;6720;51.958;4.540;2023-07-20T01:53:29;101411.88;;;18.66
13304;BMP280;6720;51.958;4.540;2023-07-20T01:55:54;101413.69;;;18.64
13304;BMP280;6720;51.958;4.540;2023-07-20T01:58:20;101409.28;;;18.65
13304;BMP280;6720;51.958;4.540;2023-07-20T02:00:46;101408.56;;;18.61
13304;BMP280;6720;51.958;4.540;2023-07-20T02:03:11;101415.69;;;18.59
13304;BMP280;6720;51.958;4.540;2023-07-20T02:05:42;101412.25;;;18.57
13304;BMP280;6720;51.958;4.540;2023-07-20T02:08:07;101411.25;;;18.60
13304;BMP280;6720;51.958;4.540;2023-07-20T02:10:32;101412.25;;;18.57
13304;BMP280;6720;51.958;4.540;2023-07-20T02:12:58;101414.09;;;18.55
13304;BMP280;6720;51.958;4.540;2023-07-20T02:15:23;101410.66;;;18.53
13304;BMP280;6720;51.958;4.540;2023-07-20T02:17:49;101402.44;;;18.59
13304;BMP280;6720;51.958;4.540;2023-07-20T02:20:14;101412.09;;;18.60
13304;BMP280;6720;51.958;4.540;2023-07-20T02:22:40;101410.50;;;18.56
13304;BMP280;6720;51.958;4.540;2023-07-20T02:25:06;101411.66;;;18.49
13304;BMP280;6720;51.958;4.540;2023-07-20T02:27:33;101418.84;;;18.47
13304;BMP280;6720;51.958;4.540;2023-07-20T02:29:58;101404.75;;;18.45
13304;BMP280;6720;51.958;4.540;2023-07-20T02:32:24;101409.28;;;18.43
13304;BMP280;6720;51.958;4.540;2023-07-20T02:34:49;101404.22;;;18.37
13304;BMP280;6720;51.958;4.540;2023-07-20T02:37:16;101410.34;;;18.16
13304;BMP280;6720;51.958;4.540;2023-07-20T02:39:42;101409.53;;;18.14
13304;BMP280;6720;51.958;4.540;2023-07-20T02:42:07;101411.94;;;18.20
13304;BMP280;6720;51.958;4.540;2023-07-20T02:44:33;101414.34;;;18.26
13304;BMP280;6720;51.958;4.540;2023-07-20T02:46:58;101414.53;;;18.22
13304;BMP280;6720;51.958;4.540;2023-07-20T02:49:23;101417.25;;;18.20
13304;BMP280;6720;51.958;4.540;2023-07-20T02:51:49;101421.06;;;18.13
13304;BMP280;6720;51.958;4.540;2023-07-20T02:54:15;101428.09;;;17.91
13304;BMP280;6720;51.958;4.540;2023-07-20T02:56:40;101432.13;;;18.01
13304;BMP280;6720;51.958;4.540;2023-07-20T02:59:05;101430.88;;;18.09
13304;BMP280;6720;51.958;4.540;2023-07-20T03:01:31;101440.53;;;18.12
13304;BMP280;6720;51.958;4.540;2023-07-20T03:03:56;101438.00;;;18.09
13304;BMP280;6720;51.958;4.540;2023-07-20T03:06:22;101442.03;;;18.19
13304;BMP280;6720;51.958;4.540;2023-07-20T03:08:47;101439.44;;;18.17
13304;BMP280;6720;51.958;4.540;2023-07-20T03:11:16;101444.22;;;18.08
13304;BMP280;6720;51.958;4.540;2023-07-20T03:13:42;101437.75;;;18.15
13304;BMP280;6720;51.958;4.540;2023-07-20T03:16:12;101443.75;;;18.20
13304;BMP280;6720;51.958;4.540;2023-07-20T03:18:43;101439.94;;;18.27
13304;BMP280;6720;51.958;4.540;2023-07-20T03:21:10;101443.28;;;18.32
13304;BMP280;6720;51.958;4.540;2023-07-20T03:23:41;101445.25;;;18.27
13304;BMP280;6720;51.958;4.540;2023-07-20T03:26:07;101443.66;;;18.23
13304;BMP280;6720;51.958;4.540;2023-07-20T03:28:37;101441.06;;;18.22
13304;BMP280;6720;51.958;4.540;2023-07-20T03:31:03;101448.94;;;18.23
13304;BMP280;6720;51.958;4.540;2023-07-20T03:33:30;101450.72;;;18.23
13304;BMP280;6720;51.958;4.540;2023-07-20T03:35:56;101443.75;;;18.20
13304;BMP280;6720;51.958;4.540;2023-07-20T03:38:22;101439.50;;;18.16
13304;BMP280;6720;51.958;4.540;2023-07-20T03:40:52;101434.13;;;18.17
13304;BMP280;6720;51.958;4.540;2023-07-20T03:43:18;101445.03;;;18.10
13304;BMP280;6720;51.958;4.540;2023-07-20T03:45:44;101440.72;;;18.07
13304;BMP280;6720;51.958;4.540;2023-07-20T03:48:11;101451.38;;;18.06
13304;BMP280;6720;51.958;4.540;2023-07-20T03:50:36;101451.38;;;18.06
13304;BMP280;6720;51.958;4.540;2023-07-20T03:53:02;101446.06;;;18.06
13304;BMP280;6720;51.958;4.540;2023-07-20T03:55:28;101447.94;;;18.04
13304;BMP280;6720;51.958;4.540;2023-07-20T03:57:53;101453.22;;;18.04
13304;BMP280;6720;51.958;4.540;2023-07-20T04:00:18;101442.72;;;18.01
13304;BMP280;6720;51.958;4.540;2023-07-20T04:02:46;101443.78;;;17.97
13304;BMP280;6720;51.958;4.540;2023-07-20T04:05:11;101455.72;;;17.84
13304;BMP280;6720;51.958;4.540;2023-07-20T04:07:37;101458.25;;;17.64
13304;BMP280;6720;51.958;4.540;2023-07-20T04:10:02;101455.59;;;17.64
13304;BMP280;6720;51.958;4.540;2023-07-20T04:12:28;101454.91;;;17.59
13304;BMP280;6720;51.958;4.540;2023-07-20T04:14:53;101459.75;;;17.71
13304;BMP280;6720;51.958;4.540;2023-07-20T04:17:19;101459.41;;;17.80
13304;BMP280;6720;51.958;4.540;2023-07-20T04:19:44;101453.72;;;17.90
13304;BMP280;6720;51.958;4.540;2023-07-20T04:22:10;101450.84;;;17.96
13304;BMP280;6720;51.958;4.540;2023-07-20T04:24:35;101455.16;;;17.99
13304;BMP280;6720;51.958;4.540;2023-07-20T04:27:01;101451.47;;;18.03
13304;BMP280;6720;51.958;4.540;2023-07-20T04:29:26;101450.63;;;18.02
13304;BMP280;6720;51.958;4.540;2023-07-20T04:31:51;101453.06;;;18.07
13304;BMP280;6720;51.958;4.540;2023-07-20T04:34:18;101461.84;;;18.09
13304;BMP280;6720;51.958;4.540;2023-07-20T04:36:44;101457.13;;;18.17
13304;BMP280;6720;51.958;4.540;2023-07-20T04:39:09;101463.97;;;18.23
13304;BMP280;6720;51.958;4.540;2023-07-20T04:41:35;101463.31;;;18.17
13304;BMP280;6720;51.958;4.540;2023-07-20T04:44:00;101463.66;;;18.30
13304;BMP280;6720;51.958;4.540;2023-07-20T04:46:26;101459.59;;;18.45
13304;BMP280;6720;51.958;4.540;2023-07-20T04:48:51;101456.91;;;18.46
13304;BMP280;6720;51.958;4.540;2023-07-20T04:51:17;101463.81;;;18.50
13304;BMP280;6720;51.958;4.540;2023-07-20T04:53:46;101465.75;;;18.45
13304;BMP280;6720;51.958;4.540;2023-07-20T04:56:12;101461.38;;;18.44
13304;BMP280;6720;51.958;4.540;2023-07-20T04:58:37;101464.84;;;18.46
13304;BMP280;6720;51.958;4.540;2023-07-20T05:01:03;101463.81;;;18.50
13304;BMP280;6720;51.958;4.540;2023-07-20T05:03:28;101467.13;;;18.55
13304;BMP280;6720;51.958;4.540;2023-07-20T05:05:54;101463.09;;;18.45
13304;BMP280;6720;51.958;4.540;2023-07-20T05:08:20;101466.56;;;18.47
13304;BMP280;6720;51.958;4.540;2023-07-20T05:10:47;101467.25;;;18.52
13304;BMP280;6720;51.958;4.540;2023-07-20T05:13:13;101464.31;;;18.60
13304;BMP280;6720;51.958;4.540;2023-07-20T05:15:38;101469.59;;;18.81
13304;BMP280;6720;51.958;4.540;2023-07-20T05:18:04;101475.00;;;19.00
13304;BMP280;6720;51.958;4.540;2023-07-20T05:20:29;101464.50;;;19.18
13304;BMP280;6720;51.958;4.540;2023-07-20T05:22:56;101472.78;;;19.32
13304;BMP280;6720;51.958;4.540;2023-07-20T05:25:22;101467.34;;;19.14
13304;BMP280;6720;51.958;4.540;2023-07-20T05:27:49;101470.88;;;19.14
13304;BMP280;6720;51.958;4.540;2023-07-20T05:30:17;101467.69;;;19.06
13304;BMP280;6720;51.958;4.540;2023-07-20T05:32:42;101472.84;;;19.09
13304;BMP280;6720;51.958;4.540;2023-07-20T05:35:08;101470.03;;;19.34
13304;BMP280;6720;51.958;4.540;2023-07-20T05:37:34;101464.81;;;19.32
13304;BMP280;6720;51.958;4.540;2023-07-20T05:39:59;101468.66;;;19.25
13304;BMP280;6720;51.958;4.540;2023-07-20T05:42:25;101469.56;;;19.24
13304;BMP280;6720;51.958;4.540;2023-07-20T05:44:50;101464.00;;;19.30
13304;BMP280;6720;51.958;4.540;2023-07-20T05:47:18;101463.88;;;19.33
13304;BMP280;6720;51.958;4.540;2023-07-20T05:49:43;101469.19;;;19.33
13304;BMP280;6720;51.958;4.540;2023-07-20T05:52:09;101470.66;;;19.40
13304;BMP280;6720;51.958;4.540;2023-07-20T05:54:34;101475.97;;;19.40
13304;BMP280;6720;51.958;4.540;2023-07-20T05:57:00;101473.56;;;19.34
13304;BMP280;6720;51.958;4.540;2023-07-20T05:59:27;101471.31;;;19.25
13304;BMP280;6720;51.958;4.540;2023-07-20T06:01:54;101472.78;;;19.32
13304;BMP280;6720;51.958;4.540;2023-07-20T06:04:20;101471.56;;;19.39
13304;BMP280;6720;51.958;4.540;2023-07-20T06:06:46;101467.19;;;19.38
13304;BMP280;6720;51.958;4.540;2023-07-20T06:09:11;101472.38;;;19.41
13304;BMP280;6720;51.958;4.540;2023-07-20T06:11:38;101475.56;;;19.49
13304;BMP280;6720;51.958;4.540;2023-07-20T06:14:04;101481.41;;;19.57
13304;BMP280;6720;51.958;4.540;2023-07-20T06:16:29;101478.38;;;19.66
13304;BMP280;6720;51.958;4.540;2023-07-20T06:18:55;101484.91;;;19.78
13304;BMP280;6720;51.958;4.540;2023-07-20T06:21:20;101472.94;;;19.88
13304;BMP280;6720;51.958;4.540;2023-07-20T06:23:46;101486.00;;;19.92
13304;BMP280;6720;51.958;4.540;2023-07-20T06:26:11;101484.16;;;19.94
13304;BMP280;6720;51.958;4.540;2023-07-20T06:28:37;101487.88;;;20.10
13304;BMP280;6720;51.958;4.540;2023-07-20T06:31:03;101489.44;;;20.14
13304;BMP280;6720;51.958;4.540;2023-07-20T06:33:28;101487.47;;;20.19
13304;BMP280;6720;51.958;4.540;2023-07-20T06:35:54;101489.44;;;20.14
13304;BMP280;6720;51.958;4.540;2023-07-20T06:38:20;101487.06;;;20.08
13304;BMP280;6720;51.958;4.540;2023-07-20T06:40:46;101494.00;;;20.12
13304;BMP280;6720;51.958;4.540;2023-07-20T06:43:12;101483.06;;;20.18
13304;BMP280;6720;51.958;4.540;2023-07-20T06:45:37;101487.09;;;20.27
13304;BMP280;6720;51.958;4.540;2023-07-20T06:48:03;101492.38;;;20.08
13304;BMP280;6720;51.958;4.540;2023-07-20T06:50:29;101491.09;;;20.17
13304;BMP280;6720;51.958;4.540;2023-07-20T06:52:55;101488.53;;;20.15
13304;BMP280;6720;51.958;4.540;2023-07-20T06:55:21;101490.25;;;20.16
13304;BMP280;6720;51.958;4.540;2023-07-20T06:57:47;101486.41;;;20.23
13304;BMP280;6720;51.958;4.540;2023-07-20T07:00:12;101497.03;;;20.23
13304;BMP280;6720;51.958;4.540;2023-07-20T07:02:38;101494.63;;;20.17
13304;BMP280;6720;51.958;4.540;2023-07-20T07:05:04;101492.59;;;20.04
13304;BMP280;6720;51.958;4.540;2023-07-20T07:07:30;101488.06;;;20.06
13304;BMP280;6720;51.958;4.540;2023-07-20T07:09:56;101486.47;;;20.22
13304;BMP280;6720;51.958;4.540;2023-07-20T07:12:23;101480.63;;;20.32
13304;BMP280;6720;51.958;4.540;2023-07-20T07:14:51;101491.00;;;20.38
13304;BMP280;6720;51.958;4.540;2023-07-20T07:17:17;101489.41;;;20.34
13304;BMP280;6720;51.958;4.540;2023-07-20T07:19:43;101495.81;;;20.30
13304;BMP280;6720;51.958;4.540;2023-07-20T07:22:09;101497.97;;;20.41
13304;BMP280;6720;51.958;4.540;2023-07-20T07:24:35;101487.25;;;20.42
13304;BMP280;6720;51.958;4.540;2023-07-20T07:27:01;101500.69;;;20.39
13304;BMP280;6720;51.958;4.540;2023-07-20T07:29:27;101498.81;;;20.41
13304;BMP280;6720;51.958;4.540;2023-07-20T07:31:53;101492.44;;;20.45
13304;BMP280;6720;51.958;4.540;2023-07-20T07:34:18;101491.56;;;20.45
13304;BMP280;6720;51.958;4.540;2023-07-20T07:36:44;101497.75;;;20.45
13304;BMP280;6720;51.958;4.540;2023-07-20T07:39:10;101497.59;;;20.48
13304;BMP280;6720;51.958;4.540;2023-07-20T07:41:37;101494.03;;;20.49
13304;BMP280;6720;51.958;4.540;2023-07-20T07:44:03;101501.53;;;20.21
13304;BMP280;6720;51.958;4.540;2023-07-20T07:46:28;101501.13;;;20.49
13304;BMP280;6720;51.958;4.540;2023-07-20T07:48:54;101505.50;;;20.50
13304;BMP280;6720;51.958;4.540;2023-07-20T07:51:19;101504.06;;;20.61
13304;BMP280;6720;51.958;4.540;2023-07-20T07:53:47;101501.19;;;20.47
13304;BMP280;6720;51.958;4.540;2023-07-20T07:56:14;101505.50;;;20.50
13304;BMP280;6720;51.958;4.540;2023-07-20T07:58:40;101508.44;;;20.62
13304;BMP280;6720;51.958;4.540;2023-07-20T08:01:05;101498.28;;;20.70
13304;BMP280;6720;51.958;4.540;2023-07-20T08:03:31;101503.47;;;20.73
13304;BMP280;6720;51.958;4.540;2023-07-20T08:05:56;101494.88;;;20.68
13304;BMP280;6720;51.958;4.540;2023-07-20T08:08:22;101486.75;;;20.88
13304;BMP280;6720;51.958;4.540;2023-07-20T08:10:48;101489.47;;;21.05
13304;BMP280;6720;51.958;4.540;2023-07-20T08:13:13;101488.88;;;21.17
13304;BMP280;6720;51.958;4.540;2023-07-20T08:15:41;101494.69;;;21.25
13304;BMP280;6720;51.958;4.540;2023-07-20T08:18:07;101497.81;;;21.50
13304;BMP280;6720;51.958;4.540;2023-07-20T08:20:33;101506.28;;;21.59
13304;BMP280;6720;51.958;4.540;2023-07-20T08:23:01;101490.75;;;21.84
13304;BMP280;6720;51.958;4.540;2023-07-20T08:25:26;101494.38;;;21.83
13304;BMP280;6720;51.958;4.540;2023-07-20T08:27:51;101492.56;;;22.16
13304;BMP280;6720;51.958;4.540;2023-07-20T08:30:17;101498.63;;;22.35
13304;BMP280;6720;51.958;4.540;2023-07-20T08:32:43;101500.06;;;22.25
13304;BMP280;6720;51.958;4.540;2023-07-20T08:35:08;101502.22;;;22.18
13304;BMP280;6720;51.958;4.540;2023-07-20T08:37:34;101497.63;;;22.05
13304;BMP280;6720;51.958;4.540;2023-07-20T08:39:59;101507.06;;;21.95
13304;BMP280;6720;51.958;4.540;2023-07-20T08:42:26;101500.88;;;21.77
13304;BMP280;6720;51.958;4.540;2023-07-20T08:44:52;101503.78;;;21.73
13304;BMP280;6720;51.958;4.540;2023-07-20T08:47:18;101502.44;;;21.64
13304;BMP280;6720;51.958;4.540;2023-07-20T08:49:48;101500.78;;;21.62
13304;BMP280;6720;51.958;4.540;2023-07-20T08:52:14;101497.50;;;21.57
13304;BMP280;6720;51.958;4.540;2023-07-20T08:54:40;101500.97;;;21.59
13304;BMP280;6720;51.958;4.540;2023-07-20T08:57:34;101502.28;;;21.67
13304;BMP280;6720;51.958;4.540;2023-07-20T09:00:13;101494.91;;;21.55
13304;BMP280;6720;51.958;4.540;2023-07-20T09:02:39;101502.59;;;21.61
13304;BMP280;6720;51.958;4.540;2023-07-20T09:05:08;101500.72;;;21.63
13304;BMP280;6720;51.958;4.540;2023-07-20T09:07:43;101499.56;;;21.86
13304;BMP280;6720;51.958;4.540;2023-07-20T09:10:09;101503.44;;;21.96
13304;BMP280;6720;51.958;4.540;2023-07-20T09:12:40;101502.44;;;22.14
13304;BMP280;6720;51.958;4.540;2023-07-20T09:15:07;101498.06;;;22.13
13304;BMP280;6720;51.958;4.540;2023-07-20T09:17:34;101502.72;;;22.25
13304;BMP280;6720;51.958;4.540;2023-07-20T09:20:06;101488.72;;;22.21
13304;BMP280;6720;51.958;4.540;2023-07-20T09:22:37;101494.75;;;22.40
13304;BMP280;6720;51.958;4.540;2023-07-20T09:25:11;101488.16;;;22.78
13304;BMP280;6720;51.958;4.540;2023-07-20T09:27:40;101491.25;;;22.71
13304;BMP280;6720;51.958;4.540;2023-07-20T09:30:06;101495.88;;;22.98
13304;BMP280;6720;51.958;4.540;2023-07-20T09:35:13;101498.59;;;23.28
13304;BMP280;6720;51.958;4.540;2023-07-20T09:37:39;101496.06;;;23.40
13304;BMP280;6720;51.958;4.540;2023-07-20T09:40:06;101498.75;;;23.40
13304;BMP280;6720;51.958;4.540;2023-07-20T09:42:34;101502.34;;;23.98
13304;BMP280;6720;51.958;4.540;2023-07-20T09:45:00;101495.59;;;23.91
13304;BMP280;6720;51.958;4.540;2023-07-20T09:47:25;101487.28;;;24.52
13304;BMP280;6720;51.958;4.540;2023-07-20T09:49:58;101484.88;;;24.76
13304;BMP280;6720;51.958;4.540;2023-07-20T09:52:25;101486.03;;;24.98
13304;BMP280;6720;51.958;4.540;2023-07-20T09:54:51;101478.84;;;24.72
13304;BMP280;6720;51.958;4.540;2023-07-20T09:57:17;101480.97;;;24.53
13304;BMP280;6720;51.958;4.540;2023-07-20T09:59:43;101482.28;;;24.74
13304;BMP280;6720;51.958;4.540;2023-07-20T10:02:23;101486.31;;;24.67
13304;BMP280;6720;51.958;4.540;2023-07-20T10:04:52;101480.84;;;24.68
13304;BMP280;6720;51.958;4.540;2023-07-20T10:07:19;101476.00;;;25.14
13304;BMP280;6720;51.958;4.540;2023-07-20T10:09:48;101482.13;;;25.16
13304;BMP280;6720;51.958;4.540;2023-07-20T10:12:15;101479.66;;;25.26
13304;BMP280;6720;51.958;4.540;2023-07-20T10:14:51;101478.91;;;24.30
13304;BMP280;6720;51.958;4.540;2023-07-20T10:17:18;101487.41;;;24.08
13304;BMP280;6720;51.958;4.540;2023-07-20T10:19:47;101482.72;;;24.40
13304;BMP280;6720;51.958;4.540;2023-07-20T10:22:19;101480.03;;;24.40
13304;BMP280;6720;51.958;4.540;2023-07-20T10:24:47;101474.03;;;24.36
13304;BMP280;6720;51.958;4.540;2023-07-20T10:27:13;101479.66;;;24.18
13304;BMP280;6720;51.958;4.540;2023-07-20T10:29:40;101474.91;;;24.23
13304;BMP280;6720;51.958;4.540;2023-07-20T10:32:08;101481.09;;;24.23
13304;BMP280;6720;51.958;4.540;2023-07-20T10:34:34;101473.56;;;24.30
13304;BMP280;6720;51.958;4.540;2023-07-20T10:36:59;101475.25;;;24.45
13304;BMP280;6720;51.958;4.540;2023-07-20T10:39:26;101465.66;;;24.69
13304;BMP280;6720;51.958;4.540;2023-07-20T10:42:06;101469.66;;;25.29
13304;BMP280;6720;51.958;4.540;2023-07-20T10:44:33;101461.53;;;25.93
13304;BMP280;6720;51.958;4.540;2023-07-20T10:47:03;101468.19;;;25.75
13304;BMP280;6720;51.958;4.540;2023-07-20T10:49:33;101462.06;;;25.48
13304;BMP280;6720;51.958;4.540;2023-07-20T10:52:00;101466.81;;;25.18
13304;BMP280;6720;51.958;4.540;2023-07-20T10:56:56;101456.94;;;25.19
13304;BMP280;6720;51.958;4.540;2023-07-20T11:01:55;101449.38;;;24.99
13304;BMP280;6720;51.958;4.540;2023-07-20T11:04:38;101454.31;;;24.78
13304;BMP280;6720;51.958;4.540;2023-07-20T11:07:05;101453.25;;;24.54
13304;BMP280;6720;51.958;4.540;2023-07-20T11:09:34;101458.00;;;24.63
13304;BMP280;6720;51.958;4.540;2023-07-20T11:12:14;101459.66;;;24.51
13304;BMP280;6720;51.958;4.540;2023-07-20T11:14:41;101456.88;;;24.53
13304;BMP280;6720;51.958;4.540;2023-07-20T11:17:15;101442.34;;;24.57
13304;BMP280;6720;51.958;4.540;2023-07-20T11:19:41;101448.06;;;24.51
13304;BMP280;6720;51.958;4.540;2023-07-20T11:22:07;101451.91;;;24.47
13304;BMP280;6720;51.958;4.540;2023-07-20T11:24:33;101448.63;;;24.56
13304;BMP280;6720;51.958;4.540;2023-07-20T11:26:59;101451.25;;;24.84
13304;BMP280;6720;51.958;4.540;2023-07-20T11:29:26;101445.94;;;24.97
13304;BMP280;6720;51.958;4.540;2023-07-20T11:31:51;101446.06;;;25.34
13304;BMP280;6720;51.958;4.540;2023-07-20T11:34:19;101443.69;;;25.30
13304;BMP280;6720;51.958;4.540;2023-07-20T11:36:47;101438.50;;;25.14
13304;BMP280;6720;51.958;4.540;2023-07-20T11:39:14;101436.88;;;25.63
13304;BMP280;6720;51.958;4.540;2023-07-20T11:41:44;101434.69;;;26.18
13304;BMP280;6720;51.958;4.540;2023-07-20T11:44:10;101425.47;;;26.82
13304;BMP280;6720;51.958;4.540;2023-07-20T11:46:39;101434.09;;;26.51
13304;BMP280;6720;51.958;4.540;2023-07-20T11:49:04;101443.97;;;26.86
13304;BMP280;6720;51.958;4.540;2023-07-20T11:51:30;101431.97;;;27.48
13304;BMP280;6720;51.958;4.540;2023-07-20T11:53:56;101426.59;;;27.48
13304;BMP280;6720;51.958;4.540;2023-07-20T11:56:25;101426.50;;;27.61
13304;BMP280;6720;51.958;4.540;2023-07-20T11:58:55;101421.78;;;27.30
13304;BMP280;6720;51.958;4.540;2023-07-20T12:01:23;101427.19;;;26.83
13304;BMP280;6720;51.958;4.540;2023-07-20T12:03:49;101434.03;;;26.27
13304;BMP280;6720;51.958;4.540;2023-07-20T12:06:15;101421.47;;;26.51
13304;BMP280;6720;51.958;4.540;2023-07-20T12:08:44;101425.97;;;26.63
13304;BMP280;6720;51.958;4.540;2023-07-20T12:11:10;101421.66;;;26.73
13304;BMP280;6720;51.958;4.540;2023-07-20T12:13:42;101423.00;;;27.02
13304;BMP280;6720;51.958;4.540;2023-07-20T12:16:14;101423.84;;;27.26
13304;BMP280;6720;51.958;4.540;2023-07-20T12:18:41;101418.50;;;27.48
13304;BMP280;6720;51.958;4.540;2023-07-20T12:21:08;101416.88;;;27.00
13304;BMP280;6720;51.958;4.540;2023-07-20T12:23:40;101413.59;;;26.73
13304;BMP280;6720;51.958;4.540;2023-07-20T12:26:10;101418.22;;;26.71
13304;BMP280;6720;51.958;4.540;2023-07-20T12:28:39;101414.63;;;26.60
13304;BMP280;6720;51.958;4.540;2023-07-20T12:31:05;101414.66;;;26.35
13304;BMP280;6720;51.958;4.540;2023-07-20T12:33:31;101412.91;;;26.59
13304;BMP280;6720;51.958;4.540;2023-07-20T12:35:57;101413.41;;;26.87
13304;BMP280;6720;51.958;4.540;2023-07-20T12:38:24;101413.31;;;26.65
13304;BMP280;6720;51.958;4.540;2023-07-20T12:40:50;101414.72;;;27.05
13304;BMP280;6720;51.958;4.540;2023-07-20T12:43:16;101402.72;;;27.44
13304;BMP280;6720;51.958;4.540;2023-07-20T12:45:42;101407.03;;;27.57
13304;BMP280;6720;51.958;4.540;2023-07-20T12:48:08;101402.03;;;27.18
13304;BMP280;6720;51.958;4.540;2023-07-20T12:50:33;101407.78;;;27.59
13304;BMP280;6720;51.958;4.540;2023-07-20T12:53:00;101402.69;;;28.12
13304;BMP280;6720;51.958;4.540;2023-07-20T12:55:25;101401.69;;;28.24
13304;BMP280;6720;51.958;4.540;2023-07-20T12:57:51;101407.19;;;28.00
13304;BMP280;6720;51.958;4.540;2023-07-20T13:00:18;101395.28;;;28.47
13304;BMP280;6720;51.958;4.540;2023-07-20T13:02:43;101393.69;;;28.55
13304;BMP280;6720;51.958;4.540;2023-07-20T13:05:09;101393.78;;;28.65
13304;BMP280;6720;51.958;4.540;2023-07-20T13:07:37;101380.09;;;28.57
13304;BMP280;6720;51.958;4.540;2023-07-20T13:10:06;101394.94;;;27.74
13304;BMP280;6720;51.958;4.540;2023-07-20T13:12:33;101388.09;;;28.14
13304;BMP280;6720;51.958;4.540;2023-07-20T13:15:04;101383.81;;;28.65
13304;BMP280;6720;51.958;4.540;2023-07-20T13:17:31;101396.03;;;27.71
13304;BMP280;6720;51.958;4.540;2023-07-20T13:19:57;101390.09;;;27.22
13304;BMP280;6720;51.958;4.540;2023-07-20T13:22:23;101392.38;;;27.16
13304;BMP280;6720;51.958;4.540;2023-07-20T13:24:48;101387.09;;;27.82
13304;BMP280;6720;51.958;4.540;2023-07-20T13:27:17;101376.47;;;28.14
13304;BMP280;6720;51.958;4.540;2023-07-20T13:29:43;101374.97;;;28.32
13304;BMP280;6720;51.958;4.540;2023-07-20T13:32:09;101378.41;;;28.45
13304;BMP280;6720;51.958;4.540;2023-07-20T13:34:34;101378.19;;;28.15
13304;BMP280;6720;51.958;4.540;2023-07-20T13:37:00;101382.19;;;28.31
13304;BMP280;6720;51.958;4.540;2023-07-20T13:39:26;101372.44;;;28.08
13304;BMP280;6720;51.958;4.540;2023-07-20T13:41:52;101367.75;;;28.32
13304;BMP280;6720;51.958;4.540;2023-07-20T13:44:18;101359.34;;;28.57
13304;BMP280;6720;51.958;4.540;2023-07-20T13:46:45;101365.41;;;28.39
13304;BMP280;6720;51.958;4.540;2023-07-20T13:49:11;101369.13;;;28.16
13304;BMP280;6720;51.958;4.540;2023-07-20T13:51:36;101376.72;;;27.77
13304;BMP280;6720;51.958;4.540;2023-07-20T13:54:01;101372.81;;;27.70
13304;BMP280;6720;51.958;4.540;2023-07-20T13:56:27;101375.28;;;27.85
13304;BMP280;6720;51.958;4.540;2023-07-20T13:58:52;101370.13;;;28.04
13304;BMP280;6720;51.958;4.540;2023-07-20T14:01:18;101365.47;;;27.50
13304;BMP280;6720;51.958;4.540;2023-07-20T14:03:44;101364.47;;;27.40
13304;BMP280;6720;51.958;4.540;2023-07-20T14:06:09;101357.63;;;27.58
13304;BMP280;6720;51.958;4.540;2023-07-20T14:08:36;101365.97;;;27.66
13304;BMP280;6720;51.958;4.540;2023-07-20T14:11:02;101359.56;;;28.23
13304;BMP280;6720;51.958;4.540;2023-07-20T14:13:27;101360.00;;;28.50
13304;BMP280;6720;51.958;4.540;2023-07-20T14:15:53;101357.56;;;28.36
13304;BMP280;6720;51.958;4.540;2023-07-20T14:18:18;101365.00;;;28.01
13304;BMP280;6720;51.958;4.540;2023-07-20T14:20:43;101358.13;;;27.74
13304;BMP280;6720;51.958;4.540;2023-07-20T14:23:09;101357.38;;;27.72